createdAt,value
2022-09-09T00:00:47.567Z,11.40
2022-09-09T00:03:20.447Z,11.35
2022-09-09T00:06:03.324Z,11.28
2022-09-09T00:08:42.891Z,11.31
2022-09-09T00:11:11.317Z,11.30
2022-09-09T00:13:46.239Z,11.31
2022-09-09T00:16:13.603Z,11.31
2022-09-09T00:18:49.446Z,11.29
2022-09-09T00:21:19.314Z,11.26
2022-09-09T00:23:48.055Z,11.20
2022-09-09T00:26:33.156Z,11.22
2022-09-09T00:29:09.546Z,11.25
2022-09-09T00:31:38.144Z,11.23
2022-09-09T00:34:13.776Z,11.21
2022-09-09T00:36:41.014Z,11.22
2022-09-09T00:39:11.292Z,11.17
2022-09-09T00:42:10.322Z,11.14
2022-09-09T00:44:40.610Z,11.10
2022-09-09T00:47:26.946Z,11.09
2022-09-09T00:49:53.423Z,11.12
2022-09-09T00:52:25.633Z,11.07
2022-09-09T00:55:26.750Z,11.08
2022-09-09T00:57:53.527Z,11.02
2022-09-09T01:00:20.091Z,10.99
2022-09-09T01:02:49.490Z,10.99
2022-09-09T01:05:45.714Z,10.97
2022-09-09T01:08:35.325Z,11.01
2022-09-09T01:11:03.258Z,11.04
2022-09-09T01:13:31.469Z,10.97
2022-09-09T01:16:02.120Z,10.89
2022-09-09T01:18:30.568Z,10.82
2022-09-09T01:21:01.189Z,10.80
2022-09-09T01:23:39.525Z,10.80
2022-09-09T01:26:11.299Z,10.87
2022-09-09T01:28:38.533Z,10.94
2022-09-09T01:31:07.366Z,10.93
2022-09-09T01:33:33.866Z,10.91
2022-09-09T01:36:13.108Z,10.95
2022-09-09T01:38:39.587Z,10.96
2022-09-09T01:41:05.985Z,10.97
2022-09-09T01:43:32.497Z,10.89
2022-09-09T01:46:00.517Z,10.88
2022-09-09T01:48:27.245Z,10.88
2022-09-09T01:50:53.591Z,10.90
2022-09-09T01:53:21.363Z,10.91
2022-09-09T01:55:58.828Z,10.90
2022-09-09T01:58:51.631Z,10.78
2022-09-09T02:01:26.865Z,10.73
2022-09-09T02:03:54.858Z,10.77
2022-09-09T02:06:29.816Z,10.81
2022-09-09T02:08:57.278Z,10.81
2022-09-09T02:11:25.546Z,10.78
2022-09-09T02:14:02.856Z,10.73
2022-09-09T02:16:29.239Z,10.75
2022-09-09T02:19:01.535Z,10.75
2022-09-09T02:21:29.867Z,10.77
2022-09-09T02:23:58.776Z,10.76
2022-09-09T02:26:26.344Z,10.77
2022-09-09T02:28:55.107Z,10.75
2022-09-09T02:31:23.076Z,10.72
2022-09-09T02:33:53.709Z,10.76
2022-09-09T02:36:21.740Z,10.79
2022-09-09T02:38:51.672Z,10.82
2022-09-09T02:41:24.455Z,10.83
2022-09-09T02:43:50.917Z,10.73
2022-09-09T02:46:20.459Z,10.76
2022-09-09T02:48:52.344Z,10.79
2022-09-09T02:51:21.683Z,10.80
2022-09-09T02:53:53.462Z,10.85
2022-09-09T02:56:22.311Z,10.92
2022-09-09T02:58:49.058Z,11.00
2022-09-09T03:01:15.522Z,11.02
2022-09-09T03:03:43.509Z,11.07
2022-09-09T03:06:10.963Z,11.11
2022-09-09T03:08:37.466Z,11.16
2022-09-09T03:11:03.908Z,11.19
2022-09-09T03:13:30.311Z,11.18
2022-09-09T03:15:56.672Z,11.21
2022-09-09T03:18:23.024Z,11.29
2022-09-09T03:20:49.553Z,11.28
2022-09-09T03:23:16.209Z,11.28
2022-09-09T03:25:49.468Z,11.24
2022-09-09T03:28:16.209Z,11.26
2022-09-09T03:30:42.541Z,11.31
2022-09-09T03:33:08.882Z,11.37
2022-09-09T03:35:35.258Z,11.49
2022-09-09T03:38:01.760Z,11.56
2022-09-09T03:40:28.257Z,11.62
2022-09-09T03:42:54.660Z,11.63
2022-09-09T03:45:21.028Z,11.65
2022-09-09T03:47:47.326Z,11.65
2022-09-09T03:50:13.738Z,11.70
2022-09-09T03:52:41.705Z,11.75
2022-09-09T03:55:08.439Z,11.80
2022-09-09T03:57:36.026Z,11.80
2022-09-09T04:00:06.329Z,11.81
2022-09-09T04:02:32.829Z,11.86
2022-09-09T04:05:00.114Z,11.80
2022-09-09T04:07:28.236Z,11.82
2022-09-09T04:09:55.621Z,11.83
2022-09-09T04:12:22.027Z,11.82
2022-09-09T04:14:48.369Z,11.81
2022-09-09T04:17:15.068Z,11.75
2022-09-09T04:19:41.772Z,11.73
2022-09-09T04:22:08.248Z,11.75
2022-09-09T04:24:34.718Z,11.69
2022-09-09T04:27:01.205Z,11.62
2022-09-09T04:29:27.557Z,11.58
2022-09-09T04:31:54.189Z,11.63
2022-09-09T04:34:20.692Z,11.65
2022-09-09T04:36:47.005Z,11.68
2022-09-09T04:39:13.453Z,11.70
2022-09-09T04:41:39.839Z,11.63
2022-09-09T04:44:06.228Z,11.64
2022-09-09T04:46:32.614Z,11.66
2022-09-09T04:48:58.961Z,11.67
2022-09-09T04:51:25.932Z,11.74
2022-09-09T04:53:52.330Z,11.77
2022-09-09T04:56:19.351Z,11.81
2022-09-09T04:58:46.558Z,11.82
2022-09-09T05:01:13.270Z,11.82
2022-09-09T05:03:39.745Z,11.81
2022-09-09T05:06:07.298Z,11.82
2022-09-09T05:08:33.698Z,11.80
2022-09-09T05:11:00.642Z,11.82
2022-09-09T05:13:29.975Z,11.92
2022-09-09T05:15:56.354Z,11.97
2022-09-09T05:18:23.295Z,12.02
2022-09-09T05:20:50.447Z,12.06
2022-09-09T05:23:17.339Z,12.07
2022-09-09T05:25:44.496Z,12.11
2022-09-09T05:28:12.151Z,12.26
2022-09-09T05:30:38.673Z,12.42
2022-09-09T05:33:05.183Z,12.52
2022-09-09T05:35:31.578Z,12.59
2022-09-09T05:38:00.398Z,12.45
2022-09-09T05:40:26.898Z,12.45
2022-09-09T05:42:54.519Z,12.42
2022-09-09T05:45:20.897Z,12.46
2022-09-09T05:47:53.242Z,12.50
2022-09-09T05:50:19.737Z,12.49
2022-09-09T05:52:46.054Z,12.49
2022-09-09T05:55:12.420Z,12.44
2022-09-09T05:57:40.185Z,12.43
2022-09-09T06:00:06.928Z,12.50
2022-09-09T06:02:34.078Z,12.52
2022-09-09T06:05:00.881Z,12.63
2022-09-09T06:07:27.249Z,12.81
2022-09-09T06:09:53.937Z,12.99
2022-09-09T06:12:21.834Z,13.15
2022-09-09T06:14:48.152Z,13.21
2022-09-09T06:17:14.492Z,13.42
2022-09-09T06:19:40.811Z,13.58
2022-09-09T06:22:07.114Z,13.67
2022-09-09T06:24:33.977Z,13.67
2022-09-09T06:27:00.290Z,13.57
2022-09-09T06:29:26.683Z,13.62
2022-09-09T06:31:54.134Z,13.64
2022-09-09T06:34:20.632Z,13.71
2022-09-09T06:36:47.183Z,13.69
2022-09-09T06:39:15.095Z,13.66
2022-09-09T06:41:42.020Z,13.73
2022-09-09T06:44:08.506Z,13.76
2022-09-09T06:46:36.680Z,13.72
2022-09-09T06:49:03.437Z,13.76
2022-09-09T06:51:34.900Z,13.70
2022-09-09T06:54:03.200Z,13.72
2022-09-09T06:56:34.513Z,13.74
2022-09-09T06:59:04.956Z,13.83
2022-09-09T07:01:36.002Z,13.82
2022-09-09T07:04:04.588Z,13.97
2022-09-09T07:06:32.128Z,14.03
2022-09-09T07:09:00.017Z,14.08
2022-09-09T07:11:30.705Z,14.05
2022-09-09T07:13:58.279Z,14.07
2022-09-09T07:16:25.633Z,14.13
2022-09-09T07:18:52.746Z,14.14
2022-09-09T07:21:19.986Z,14.07
2022-09-09T07:23:46.385Z,13.96
2022-09-09T07:26:23.558Z,13.93
2022-09-09T07:28:50.288Z,13.94
2022-09-09T07:31:18.382Z,13.95
2022-09-09T07:33:45.588Z,13.93
2022-09-09T07:36:19.197Z,13.93
2022-09-09T07:38:46.754Z,14.08
2022-09-09T07:41:18.156Z,14.19
2022-09-09T07:43:45.558Z,14.21
2022-09-09T07:46:13.121Z,14.27
2022-09-09T07:48:39.866Z,14.25
2022-09-09T07:51:06.948Z,14.18
2022-09-09T07:53:33.421Z,14.27
2022-09-09T07:56:10.260Z,14.35
2022-09-09T07:58:38.601Z,14.42
2022-09-09T08:01:12.437Z,14.57
2022-09-09T08:03:38.813Z,14.77
2022-09-09T08:06:07.157Z,14.81
2022-09-09T08:08:34.093Z,15.07
2022-09-09T08:11:08.473Z,15.19
2022-09-09T08:13:36.049Z,15.41
2022-09-09T08:16:28.874Z,15.34
2022-09-09T08:18:56.032Z,15.30
2022-09-09T08:21:24.322Z,15.31
2022-09-09T08:23:57.630Z,15.20
2022-09-09T08:26:26.251Z,15.18
2022-09-09T08:28:53.707Z,15.27
2022-09-09T08:31:22.253Z,15.31
2022-09-09T08:33:53.117Z,15.40
2022-09-09T08:36:24.009Z,15.44
2022-09-09T08:38:51.338Z,15.40
2022-09-09T08:41:36.266Z,15.47
2022-09-09T08:44:15.787Z,15.39
2022-09-09T08:46:51.637Z,15.36
2022-09-09T08:49:36.450Z,15.24
2022-09-09T08:52:03.739Z,15.40
2022-09-09T08:54:51.166Z,15.33
2022-09-09T08:57:27.738Z,15.46
2022-09-09T08:59:56.310Z,15.45
2022-09-09T09:02:27.871Z,15.53
2022-09-09T09:05:03.693Z,15.48
2022-09-09T09:07:41.445Z,15.50
2022-09-09T09:10:39.789Z,15.51
2022-09-09T09:13:04.180Z,15.48
2022-09-09T09:15:40.164Z,15.32
2022-09-09T09:18:06.699Z,15.23
2022-09-09T09:20:47.268Z,15.24
2022-09-09T09:23:37.210Z,15.24
2022-09-09T09:26:07.783Z,15.33
2022-09-09T09:28:34.970Z,15.24
2022-09-09T09:31:06.840Z,15.21
2022-09-09T09:33:45.537Z,15.20
2022-09-09T09:36:14.221Z,15.13
2022-09-09T09:41:31.484Z,15.22
2022-09-09T09:43:57.865Z,15.18
2022-09-09T09:46:26.649Z,15.16
2022-09-09T09:49:03.791Z,15.26
2022-09-09T09:51:31.230Z,15.26
2022-09-09T09:54:17.967Z,15.39
2022-09-09T09:56:45.180Z,15.49
2022-09-09T09:59:38.781Z,15.49
2022-09-09T10:02:17.311Z,15.39
2022-09-09T10:04:44.191Z,15.32
2022-09-09T10:07:17.239Z,15.38
2022-09-09T10:09:43.643Z,15.28
2022-09-09T10:12:09.998Z,15.22
2022-09-09T10:14:39.343Z,15.19
2022-09-09T10:17:27.437Z,15.15
2022-09-09T10:19:59.978Z,15.09
2022-09-09T10:22:33.110Z,15.05
2022-09-09T10:25:07.092Z,14.91
2022-09-09T10:27:47.930Z,14.86
2022-09-09T10:30:14.321Z,14.76
2022-09-09T10:33:14.414Z,14.76
2022-09-09T10:35:59.138Z,14.72
2022-09-09T10:38:47.077Z,14.85
2022-09-09T10:41:13.361Z,14.96
2022-09-09T10:44:00.606Z,15.14
2022-09-09T10:46:28.376Z,15.17
2022-09-09T10:48:57.570Z,15.24
2022-09-09T10:51:27.831Z,15.25
2022-09-09T10:54:14.409Z,15.20
2022-09-09T10:56:43.852Z,15.29
2022-09-09T10:59:16.731Z,15.30
2022-09-09T11:01:50.334Z,15.24
2022-09-09T11:04:33.824Z,15.23
2022-09-09T11:07:07.470Z,15.34
2022-09-09T11:09:44.473Z,15.54
2022-09-09T11:12:14.139Z,15.63
2022-09-09T11:14:43.374Z,15.76
2022-09-09T11:17:25.186Z,15.93
2022-09-09T11:19:51.949Z,16.13
2022-09-09T11:22:18.455Z,16.28
2022-09-09T11:25:03.496Z,16.27
2022-09-09T11:27:37.229Z,16.35
2022-09-09T11:30:07.696Z,16.37
2022-09-09T11:32:34.224Z,16.20
2022-09-09T11:35:15.992Z,16.29
2022-09-09T11:37:58.540Z,16.15
2022-09-09T11:40:26.389Z,16.16
2022-09-09T11:43:13.802Z,16.16
2022-09-09T11:45:44.310Z,16.30
2022-09-09T11:48:32.383Z,16.46
2022-09-09T11:51:01.254Z,16.51
2022-09-09T11:53:28.698Z,16.59
2022-09-09T11:56:21.131Z,16.69
2022-09-09T11:59:06.916Z,16.74
2022-09-09T12:01:43.982Z,16.66
2022-09-09T12:04:10.329Z,16.66
2022-09-09T12:06:47.236Z,16.57
2022-09-09T12:09:24.203Z,16.42
2022-09-09T12:11:50.698Z,16.15
2022-09-09T12:14:21.388Z,16.18
2022-09-09T12:16:47.922Z,16.32
2022-09-09T12:19:26.195Z,16.19
2022-09-09T12:22:04.471Z,16.11
2022-09-09T12:24:40.740Z,16.03
2022-09-09T12:27:16.035Z,15.98
2022-09-09T12:29:42.336Z,15.75
2022-09-09T12:32:13.967Z,15.73
2022-09-09T12:34:53.011Z,15.82
2022-09-09T12:37:30.028Z,15.75
2022-09-09T12:39:57.760Z,15.73
2022-09-09T12:42:25.121Z,15.65
2022-09-09T12:44:52.311Z,15.58
2022-09-09T12:47:19.942Z,15.60
2022-09-09T12:49:47.535Z,15.53
2022-09-09T12:52:20.237Z,15.48
2022-09-09T12:54:52.472Z,15.68
2022-09-09T12:57:18.914Z,15.47
2022-09-09T12:59:49.217Z,15.40
2022-09-09T13:02:21.496Z,15.53
2022-09-09T13:04:48.111Z,15.40
2022-09-09T13:07:16.977Z,15.38
2022-09-09T13:09:44.440Z,15.31
2022-09-09T13:12:15.449Z,15.47
2022-09-09T13:14:44.204Z,15.53
2022-09-09T13:17:37.238Z,15.56
2022-09-09T13:20:05.184Z,15.48
2022-09-09T13:22:38.917Z,15.47
2022-09-09T13:25:05.376Z,15.57
2022-09-09T13:27:39.584Z,15.63
2022-09-09T13:30:24.635Z,15.83
2022-09-09T13:33:06.141Z,16.01
2022-09-09T13:35:33.067Z,16.23
2022-09-09T13:38:01.325Z,16.26
2022-09-09T13:40:27.960Z,16.33
2022-09-09T13:42:56.738Z,16.29
2022-09-09T13:45:25.374Z,16.28
2022-09-09T13:47:53.364Z,16.26
2022-09-09T13:50:21.944Z,16.32
2022-09-09T13:52:54.059Z,16.24
2022-09-09T13:55:24.997Z,16.42
2022-09-09T13:58:01.739Z,16.35
2022-09-09T14:00:30.188Z,16.39
2022-09-09T14:02:56.680Z,16.16
2022-09-09T14:05:23.320Z,16.13
2022-09-09T14:07:53.054Z,16.15
2022-09-09T14:10:20.252Z,16.27
2022-09-09T14:12:47.613Z,16.33
2022-09-09T14:15:14.009Z,16.20
2022-09-09T14:17:40.335Z,16.13
2022-09-09T14:20:10.356Z,16.07
2022-09-09T14:22:37.225Z,16.21
2022-09-09T14:25:04.214Z,16.04
2022-09-09T14:27:31.090Z,16.17
2022-09-09T14:29:58.825Z,16.11
2022-09-09T14:32:25.242Z,16.35
2022-09-09T14:34:51.667Z,16.54
2022-09-09T14:37:18.726Z,16.60
2022-09-09T14:39:45.590Z,16.80
2022-09-09T14:42:12.128Z,16.89
2022-09-09T14:44:41.763Z,17.22
2022-09-09T14:47:11.514Z,16.86
2022-09-09T14:49:39.095Z,16.84
2022-09-09T14:52:07.519Z,16.66
2022-09-09T14:54:34.053Z,16.82
2022-09-09T14:57:00.625Z,16.73
2022-09-09T14:59:27.976Z,16.69
2022-09-09T15:01:54.377Z,16.56
2022-09-09T15:04:21.496Z,16.48
2022-09-09T15:06:49.334Z,16.37
2022-09-09T15:09:16.209Z,16.24
2022-09-09T15:11:42.648Z,16.32
2022-09-09T15:14:09.721Z,16.29
2022-09-09T15:16:36.284Z,16.34
2022-09-09T15:19:03.580Z,16.35
2022-09-09T15:21:31.774Z,16.35
2022-09-09T15:23:58.589Z,16.29
2022-09-09T15:26:25.384Z,16.32
2022-09-09T15:28:51.891Z,16.39
2022-09-09T15:31:19.642Z,16.31
2022-09-09T15:33:53.082Z,16.40
2022-09-09T15:36:23.751Z,16.31
2022-09-09T15:38:50.594Z,16.13
2022-09-09T15:41:17.843Z,16.15
2022-09-09T15:43:48.010Z,16.00
2022-09-09T15:46:33.336Z,16.03
2022-09-09T15:49:05.130Z,16.00
2022-09-09T15:51:42.130Z,16.00
2022-09-09T15:54:11.131Z,16.05
2022-09-09T15:56:37.460Z,15.99
2022-09-09T15:59:04.015Z,16.07
2022-09-09T16:01:31.363Z,15.98
2022-09-09T16:03:58.238Z,15.95
2022-09-09T16:06:25.469Z,15.96
2022-09-09T16:08:53.200Z,16.01
2022-09-09T16:11:27.244Z,15.97
2022-09-09T16:13:54.374Z,15.90
2022-09-09T16:16:25.287Z,15.85
2022-09-09T16:18:53.636Z,15.80
2022-09-09T16:21:22.294Z,15.71
2022-09-09T16:23:50.398Z,15.65
2022-09-09T16:26:17.359Z,15.62
2022-09-09T16:28:44.365Z,15.56
2022-09-09T16:31:15.008Z,15.52
2022-09-09T16:33:42.842Z,15.41
2022-09-09T16:36:13.717Z,15.42
2022-09-09T16:38:40.280Z,15.45
2022-09-09T16:41:07.371Z,15.40
2022-09-09T16:43:34.400Z,15.41
2022-09-09T16:46:03.709Z,15.37
2022-09-09T16:48:36.210Z,15.31
2022-09-09T16:51:04.925Z,15.31
2022-09-09T16:53:31.335Z,15.32
2022-09-09T16:55:57.710Z,15.28
2022-09-09T16:58:24.134Z,15.17
2022-09-09T17:00:52.201Z,15.14
2022-09-09T17:03:18.527Z,15.15
2022-09-09T17:05:45.653Z,15.07
2022-09-09T17:08:11.955Z,15.03
2022-09-09T17:10:42.788Z,14.98
2022-09-09T17:13:09.516Z,14.90
2022-09-09T17:15:41.194Z,14.84
2022-09-09T17:18:07.663Z,14.81
2022-09-09T17:20:46.027Z,14.77
2022-09-09T17:23:16.261Z,14.79
2022-09-09T17:25:42.866Z,14.72
2022-09-09T17:28:09.178Z,14.67
2022-09-09T17:30:36.170Z,14.58
2022-09-09T17:33:02.485Z,14.51
2022-09-09T17:35:28.929Z,14.44
2022-09-09T17:37:55.657Z,14.37
2022-09-09T17:40:22.133Z,14.31
2022-09-09T17:42:48.639Z,14.34
2022-09-09T17:45:15.790Z,14.27
2022-09-09T17:47:43.730Z,14.25
2022-09-09T17:50:12.362Z,14.22
2022-09-09T17:52:38.781Z,14.17
2022-09-09T17:55:05.706Z,14.14
2022-09-09T17:57:32.480Z,14.14
2022-09-09T17:59:58.838Z,14.13
2022-09-09T18:02:25.241Z,14.14
2022-09-09T18:04:51.664Z,14.13
2022-09-09T18:07:18.035Z,14.20
2022-09-09T18:09:44.631Z,14.11
2022-09-09T18:12:11.005Z,14.07
2022-09-09T18:14:37.314Z,14.06
2022-09-09T18:17:04.241Z,14.04
2022-09-09T18:19:31.936Z,13.91
2022-09-09T18:22:01.746Z,13.94
2022-09-09T18:24:29.342Z,13.88
2022-09-09T18:26:55.737Z,13.86
2022-09-09T18:29:25.211Z,13.84
2022-09-09T18:31:53.217Z,13.82
2022-09-09T18:34:20.224Z,13.82
2022-09-09T18:36:47.975Z,13.80
2022-09-09T18:39:16.243Z,13.81
2022-09-09T18:41:44.201Z,13.81
2022-09-09T18:44:12.165Z,13.76
2022-09-09T18:46:39.910Z,13.78
2022-09-09T18:49:06.365Z,13.72
2022-09-09T18:51:37.169Z,13.62
2022-09-09T18:54:09.358Z,13.55
2022-09-09T18:56:36.041Z,13.61
2022-09-09T18:59:03.942Z,13.54
2022-09-09T19:01:30.856Z,13.50
2022-09-09T19:03:57.267Z,13.44
2022-09-09T19:06:25.750Z,13.44
2022-09-09T19:08:55.416Z,13.42
2022-09-09T19:11:24.137Z,13.43
2022-09-09T19:13:55.455Z,13.39
2022-09-09T19:16:23.171Z,13.36
2022-09-09T19:18:50.350Z,13.38
2022-09-09T19:21:19.425Z,13.40
2022-09-09T19:23:46.797Z,13.39
2022-09-09T19:26:17.030Z,13.32
2022-09-09T19:28:46.983Z,13.29
2022-09-09T19:31:17.685Z,13.29
2022-09-09T19:33:47.739Z,13.26
2022-09-09T19:36:15.708Z,13.23
2022-09-09T19:38:42.187Z,13.22
2022-09-09T19:41:09.784Z,13.18
2022-09-09T19:43:36.794Z,13.15
2022-09-09T19:46:05.096Z,13.11
2022-09-09T19:48:31.929Z,13.08
2022-09-09T19:51:09.310Z,13.04
2022-09-09T19:53:39.191Z,13.00
2022-09-09T19:56:05.797Z,12.98
2022-09-09T19:58:34.368Z,12.94
2022-09-09T20:01:11.440Z,12.89
2022-09-09T20:03:38.924Z,12.85
2022-09-09T20:06:06.287Z,12.84
2022-09-09T20:08:33.273Z,12.81
2022-09-09T20:11:01.115Z,12.82
2022-09-09T20:13:28.996Z,12.78
2022-09-09T20:16:09.237Z,12.75
2022-09-09T20:18:36.922Z,12.69
2022-09-09T20:21:05.481Z,12.67
2022-09-09T20:23:32.055Z,12.63
2022-09-09T20:26:02.873Z,12.60
2022-09-09T20:28:29.837Z,12.61
2022-09-09T20:30:56.193Z,12.58
2022-09-09T20:33:22.566Z,12.54
2022-09-09T20:35:49.055Z,12.54
2022-09-09T20:38:15.487Z,12.53
2022-09-09T20:40:42.225Z,12.51
2022-09-09T20:43:12.591Z,12.50
2022-09-09T20:45:39.256Z,12.54
2022-09-09T20:48:06.006Z,12.45
2022-09-09T20:50:34.835Z,12.60
2022-09-09T20:53:01.268Z,12.68
2022-09-09T20:55:27.720Z,12.64
2022-09-09T20:57:54.057Z,12.70
2022-09-09T21:00:20.462Z,12.82
2022-09-09T21:02:46.804Z,12.89
2022-09-09T21:05:13.257Z,12.88
2022-09-09T21:07:39.580Z,12.94
2022-09-09T21:10:06.292Z,12.93
2022-09-09T21:12:32.621Z,12.95
2022-09-09T21:14:59.801Z,12.83
2022-09-09T21:17:26.358Z,12.85
2022-09-09T21:19:56.366Z,12.77
2022-09-09T21:22:23.563Z,12.80
2022-09-09T21:24:50.818Z,12.80
2022-09-09T21:27:17.160Z,12.82
2022-09-09T21:29:43.647Z,12.77
2022-09-09T21:32:09.971Z,12.67
2022-09-09T21:34:36.291Z,12.57
2022-09-09T21:37:02.632Z,12.61
2022-09-09T21:39:29.001Z,12.57
2022-09-09T21:41:56.884Z,12.48
2022-09-09T21:44:23.244Z,12.47
2022-09-09T21:46:49.588Z,12.46
2022-09-09T21:49:15.935Z,12.45
2022-09-09T21:51:42.249Z,12.50
2022-09-09T21:54:08.590Z,12.37
2022-09-09T21:56:35.761Z,12.35
2022-09-09T21:59:03.875Z,12.35
2022-09-09T22:01:33.145Z,12.32
2022-09-09T22:04:00.480Z,12.28
2022-09-09T22:06:26.831Z,12.21
2022-09-09T22:08:58.931Z,12.13
2022-09-09T22:11:25.530Z,12.08
2022-09-09T22:13:53.350Z,12.02
2022-09-09T22:16:20.878Z,11.94
2022-09-09T22:18:50.727Z,11.87
2022-09-09T22:21:18.118Z,11.89
2022-09-09T22:23:46.821Z,11.87
2022-09-09T22:26:13.269Z,11.83
2022-09-09T22:28:39.786Z,11.77
2022-09-09T22:31:06.274Z,11.68
2022-09-09T22:33:32.758Z,11.64
2022-09-09T22:35:59.292Z,11.62
2022-09-09T22:38:26.981Z,11.61
2022-09-09T22:40:53.543Z,11.61
2022-09-09T22:43:21.251Z,11.59
2022-09-09T22:45:47.990Z,11.54
2022-09-09T22:48:14.892Z,11.44
2022-09-09T22:50:42.618Z,11.39
2022-09-09T22:53:10.013Z,11.35
2022-09-09T22:55:36.979Z,11.32
2022-09-09T22:58:03.317Z,11.29
2022-09-09T23:00:29.769Z,11.30
2022-09-09T23:02:56.345Z,11.29
2022-09-09T23:05:24.411Z,11.31
2022-09-09T23:07:52.895Z,11.29
2022-09-09T23:10:19.657Z,11.26
2022-09-09T23:12:47.699Z,11.24
2022-09-09T23:15:14.063Z,11.20
2022-09-09T23:17:41.029Z,11.21
2022-09-09T23:20:08.484Z,11.14
2022-09-09T23:22:35.258Z,11.12
2022-09-09T23:25:02.177Z,11.11
2022-09-09T23:27:29.853Z,11.14
2022-09-09T23:29:56.822Z,11.20
2022-09-09T23:32:24.052Z,11.33
2022-09-09T23:34:50.975Z,11.36
2022-09-09T23:37:17.420Z,11.40
2022-09-09T23:39:43.944Z,11.42
2022-09-09T23:42:11.319Z,11.44
2022-09-09T23:44:38.492Z,11.44
2022-09-09T23:47:09.325Z,11.48
2022-09-09T23:49:37.230Z,11.49
2022-09-09T23:52:06.300Z,11.54
2022-09-09T23:54:34.101Z,11.57
2022-09-09T23:57:00.448Z,11.59
2022-09-09T23:59:26.792Z,11.53
